sensor_id;sensor_type;location;lat;lon;timestamp;temperature;humidity
582;DHT22;277;50.074;8.436;2023-02-11T00:02:25;4.20;99.90
582;DHT22;277;50.074;8.436;2023-02-11T00:05:10;4.10;99.90
582;DHT22;277;50.074;8.436;2023-02-11T00:07:39;4.20;99.90
582;DHT22;277;50.074;8.436;2023-02-11T00:10:07;4.20;99.90
582;DHT22;277;50.074;8.436;2023-02-11T00:12:36;4.30;99.90
582;DHT22;277;50.074;8.436;2023-02-11T00:15:06;4.40;99.90
582;DHT22;277;50.074;8.436;2023-02-11T00:17:34;4.60;99.90
582;DHT22;277;50.074;8.436;2023-02-11T00:20:02;4.40;99.90
582;DHT22;277;50.074;8.436;2023-02-11T00:22:33;4.40;99.90
582;DHT22;277;50.074;8.436;2023-02-11T00:25:03;4.30;99.90
582;DHT22;277;50.074;8.436;2023-02-11T00:27:31;4.30;99.90
582;DHT22;277;50.074;8.436;2023-02-11T00:29:58;4.50;99.90
582;DHT22;277;50.074;8.436;2023-02-11T00:32:27;4.40;99.90
582;DHT22;277;50.074;8.436;2023-02-11T00:34:55;4.50;99.90
582;DHT22;277;50.074;8.436;2023-02-11T00:37:23;4.40;99.90
582;DHT22;277;50.074;8.436;2023-02-11T00:40:13;4.30;99.90
582;DHT22;277;50.074;8.436;2023-02-11T00:42:46;4.20;99.90
582;DHT22;277;50.074;8.436;2023-02-11T00:45:14;4.20;99.90
582;DHT22;277;50.074;8.436;2023-02-11T00:47:42;4.20;99.90
582;DHT22;277;50.074;8.436;2023-02-11T00:50:10;4.20;99.90
582;DHT22;277;50.074;8.436;2023-02-11T00:52:38;4.30;99.90
582;DHT22;277;50.074;8.436;2023-02-11T00:55:06;4.40;99.90
582;DHT22;277;50.074;8.436;2023-02-11T00:57:36;4.40;99.90
582;DHT22;277;50.074;8.436;2023-02-11T01:00:05;4.70;99.90
582;DHT22;277;50.074;8.436;2023-02-11T01:02:33;4.80;99.90
582;DHT22;277;50.074;8.436;2023-02-11T01:05:01;4.80;99.90
582;DHT22;277;50.074;8.436;2023-02-11T01:07:29;4.90;99.90
582;DHT22;277;50.074;8.436;2023-02-11T01:09:57;5.00;99.90
582;DHT22;277;50.074;8.436;2023-02-11T01:12:25;5.00;99.90
582;DHT22;277;50.074;8.436;2023-02-11T01:14:54;5.10;99.90
582;DHT22;277;50.074;8.436;2023-02-11T01:17:22;5.30;99.90
582;DHT22;277;50.074;8.436;2023-02-11T01:19:50;5.30;99.90
582;DHT22;277;50.074;8.436;2023-02-11T01:22:17;5.30;99.90
582;DHT22;277;50.074;8.436;2023-02-11T01:24:45;5.50;99.90
582;DHT22;277;50.074;8.436;2023-02-11T01:27:13;5.30;99.90
582;DHT22;277;50.074;8.436;2023-02-11T01:29:41;5.20;99.90
582;DHT22;277;50.074;8.436;2023-02-11T01:32:10;5.10;99.90
582;DHT22;277;50.074;8.436;2023-02-11T01:34:38;5.00;99.90
582;DHT22;277;50.074;8.436;2023-02-11T01:37:06;4.90;99.90
582;DHT22;277;50.074;8.436;2023-02-11T01:39:34;4.80;99.90
582;DHT22;277;50.074;8.436;2023-02-11T01:42:02;5.00;99.90
582;DHT22;277;50.074;8.436;2023-02-11T01:44:32;5.20;99.90
582;DHT22;277;50.074;8.436;2023-02-11T01:47:00;5.30;99.90
582;DHT22;277;50.074;8.436;2023-02-11T01:49:55;5.50;99.90
582;DHT22;277;50.074;8.436;2023-02-11T01:52:25;5.40;99.90
582;DHT22;277;50.074;8.436;2023-02-11T01:54:57;5.60;99.90
582;DHT22;277;50.074;8.436;2023-02-11T01:57:46;5.40;99.90
582;DHT22;277;50.074;8.436;2023-02-11T02:00:20;5.30;99.90
582;DHT22;277;50.074;8.436;2023-02-11T02:02:54;5.30;99.90
582;DHT22;277;50.074;8.436;2023-02-11T02:05:29;5.30;99.90
582;DHT22;277;50.074;8.436;2023-02-11T02:08:03;5.10;99.90
582;DHT22;277;50.074;8.436;2023-02-11T02:10:34;5.00;99.90
582;DHT22;277;50.074;8.436;2023-02-11T02:13:03;4.90;99.90
582;DHT22;277;50.074;8.436;2023-02-11T02:15:32;4.90;99.90
582;DHT22;277;50.074;8.436;2023-02-11T02:18:30;4.90;99.90
582;DHT22;277;50.074;8.436;2023-02-11T02:24:30;4.90;99.90
582;DHT22;277;50.074;8.436;2023-02-11T02:27:26;4.70;99.90
582;DHT22;277;50.074;8.436;2023-02-11T02:30:15;4.70;99.90
582;DHT22;277;50.074;8.436;2023-02-11T02:33:16;4.50;99.90
582;DHT22;277;50.074;8.436;2023-02-11T02:35:55;4.50;99.90
582;DHT22;277;50.074;8.436;2023-02-11T02:38:30;4.60;99.90
582;DHT22;277;50.074;8.436;2023-02-11T02:41:03;4.60;99.90
582;DHT22;277;50.074;8.436;2023-02-11T02:43:34;4.50;99.90
582;DHT22;277;50.074;8.436;2023-02-11T02:46:11;4.50;99.90
582;DHT22;277;50.074;8.436;2023-02-11T02:48:41;4.70;99.90
582;DHT22;277;50.074;8.436;2023-02-11T02:51:20;4.70;99.90
582;DHT22;277;50.074;8.436;2023-02-11T02:54:01;4.90;99.90
582;DHT22;277;50.074;8.436;2023-02-11T02:56:39;4.90;99.90
582;DHT22;277;50.074;8.436;2023-02-11T02:59:30;5.00;99.90
582;DHT22;277;50.074;8.436;2023-02-11T03:02:09;5.20;99.90
582;DHT22;277;50.074;8.436;2023-02-11T03:04:47;5.10;99.90
582;DHT22;277;50.074;8.436;2023-02-11T03:07:24;5.10;99.90
582;DHT22;277;50.074;8.436;2023-02-11T03:09:57;5.10;99.90
582;DHT22;277;50.074;8.436;2023-02-11T03:12:28;5.00;99.90
582;DHT22;277;50.074;8.436;2023-02-11T03:14:58;5.00;99.90
582;DHT22;277;50.074;8.436;2023-02-11T03:17:30;4.80;99.90
582;DHT22;277;50.074;8.436;2023-02-11T03:20:01;4.70;99.90
582;DHT22;277;50.074;8.436;2023-02-11T03:22:34;4.70;99.90
582;DHT22;277;50.074;8.436;2023-02-11T03:25:04;4.80;99.90
582;DHT22;277;50.074;8.436;2023-02-11T03:27:38;4.90;99.90
582;DHT22;277;50.074;8.436;2023-02-11T03:30:12;4.90;99.90
582;DHT22;277;50.074;8.436;2023-02-11T03:32:47;4.90;99.90
582;DHT22;277;50.074;8.436;2023-02-11T03:35:20;5.00;99.90
582;DHT22;277;50.074;8.436;2023-02-11T03:37:51;5.30;99.90
582;DHT22;277;50.074;8.436;2023-02-11T03:40:22;5.30;99.90
582;DHT22;277;50.074;8.436;2023-02-11T03:42:53;5.30;99.90
582;DHT22;277;50.074;8.436;2023-02-11T03:45:24;5.40;99.90
582;DHT22;277;50.074;8.436;2023-02-11T03:47:57;5.40;99.90
582;DHT22;277;50.074;8.436;2023-02-11T03:50:30;5.30;99.90
582;DHT22;277;50.074;8.436;2023-02-11T03:52:59;5.30;99.90
582;DHT22;277;50.074;8.436;2023-02-11T03:55:29;5.20;99.90
582;DHT22;277;50.074;8.436;2023-02-11T03:57:59;5.00;99.90
582;DHT22;277;50.074;8.436;2023-02-11T04:00:32;4.70;99.90
582;DHT22;277;50.074;8.436;2023-02-11T04:03:00;4.50;99.90
582;DHT22;277;50.074;8.436;2023-02-11T04:05:30;4.40;99.90
582;DHT22;277;50.074;8.436;2023-02-11T04:08:18;4.10;99.90
582;DHT22;277;50.074;8.436;2023-02-11T04:10:46;4.10;99.90
582;DHT22;277;50.074;8.436;2023-02-11T04:13:14;4.10;99.90
582;DHT22;277;50.074;8.436;2023-02-11T04:15:41;4.00;99.90
582;DHT22;277;50.074;8.436;2023-02-11T04:18:09;4.10;99.90
582;DHT22;277;50.074;8.436;2023-02-11T04:20:38;4.10;99.90
582;DHT22;277;50.074;8.436;2023-02-11T04:23:06;4.10;99.90
582;DHT22;277;50.074;8.436;2023-02-11T04:25:35;4.10;99.90
582;DHT22;277;50.074;8.436;2023-02-11T04:28:03;4.20;99.90
582;DHT22;277;50.074;8.436;2023-02-11T04:30:31;4.30;99.90
582;DHT22;277;50.074;8.436;2023-02-11T04:32:59;4.10;99.90
582;DHT22;277;50.074;8.436;2023-02-11T04:35:27;4.30;99.90
582;DHT22;277;50.074;8.436;2023-02-11T04:37:56;4.20;99.90
582;DHT22;277;50.074;8.436;2023-02-11T04:40:24;4.40;99.90
582;DHT22;277;50.074;8.436;2023-02-11T04:42:51;4.60;99.90
582;DHT22;277;50.074;8.436;2023-02-11T04:45:19;4.80;99.90
582;DHT22;277;50.074;8.436;2023-02-11T04:47:47;4.90;99.90
582;DHT22;277;50.074;8.436;2023-02-11T04:50:16;5.00;99.90
582;DHT22;277;50.074;8.436;2023-02-11T04:52:44;5.00;99.90
582;DHT22;277;50.074;8.436;2023-02-11T04:55:13;4.70;99.90
582;DHT22;277;50.074;8.436;2023-02-11T04:57:41;4.30;99.90
582;DHT22;277;50.074;8.436;2023-02-11T05:00:09;4.00;99.90
582;DHT22;277;50.074;8.436;2023-02-11T05:02:38;3.70;99.90
582;DHT22;277;50.074;8.436;2023-02-11T05:05:06;3.60;99.90
582;DHT22;277;50.074;8.436;2023-02-11T05:07:34;3.60;99.90
582;DHT22;277;50.074;8.436;2023-02-11T05:10:02;3.80;99.90
582;DHT22;277;50.074;8.436;2023-02-11T05:12:31;4.10;99.90
582;DHT22;277;50.074;8.436;2023-02-11T05:14:59;3.90;99.90
582;DHT22;277;50.074;8.436;2023-02-11T05:17:27;3.80;99.90
582;DHT22;277;50.074;8.436;2023-02-11T05:19:55;3.40;99.90
582;DHT22;277;50.074;8.436;2023-02-11T05:22:23;2.80;99.90
582;DHT22;277;50.074;8.436;2023-02-11T05:24:50;2.80;99.90
582;DHT22;277;50.074;8.436;2023-02-11T05:27:18;2.90;99.90
582;DHT22;277;50.074;8.436;2023-02-11T05:29:47;3.10;99.90
582;DHT22;277;50.074;8.436;2023-02-11T05:32:15;3.20;99.90
582;DHT22;277;50.074;8.436;2023-02-11T05:34:43;3.40;99.90
582;DHT22;277;50.074;8.436;2023-02-11T05:37:11;3.70;99.90
582;DHT22;277;50.074;8.436;2023-02-11T05:39:39;3.80;99.90
582;DHT22;277;50.074;8.436;2023-02-11T05:42:07;4.10;99.90
582;DHT22;277;50.074;8.436;2023-02-11T05:44:35;4.20;99.90
582;DHT22;277;50.074;8.436;2023-02-11T05:47:04;4.40;99.90
582;DHT22;277;50.074;8.436;2023-02-11T05:49:34;4.60;99.90
582;DHT22;277;50.074;8.436;2023-02-11T05:52:02;4.60;99.90
582;DHT22;277;50.074;8.436;2023-02-11T05:54:30;4.70;99.90
582;DHT22;277;50.074;8.436;2023-02-11T05:56:58;4.70;99.90
582;DHT22;277;50.074;8.436;2023-02-11T05:59:26;4.80;99.90
582;DHT22;277;50.074;8.436;2023-02-11T06:01:54;4.80;99.90
582;DHT22;277;50.074;8.436;2023-02-11T06:04:23;4.70;99.90
582;DHT22;277;50.074;8.436;2023-02-11T06:06:51;4.60;99.90
582;DHT22;277;50.074;8.436;2023-02-11T06:09:19;4.50;99.90
582;DHT22;277;50.074;8.436;2023-02-11T06:11:47;4.50;99.90
582;DHT22;277;50.074;8.436;2023-02-11T06:14:15;4.40;99.90
582;DHT22;277;50.074;8.436;2023-02-11T06:16:43;4.50;99.90
582;DHT22;277;50.074;8.436;2023-02-11T06:19:11;4.60;99.90
582;DHT22;277;50.074;8.436;2023-02-11T06:21:41;4.60;99.90
582;DHT22;277;50.074;8.436;2023-02-11T06:24:10;4.70;99.90
582;DHT22;277;50.074;8.436;2023-02-11T06:26:38;4.80;99.90
582;DHT22;277;50.074;8.436;2023-02-11T06:29:06;4.60;99.90
582;DHT22;277;50.074;8.436;2023-02-11T06:31:35;4.40;99.90
582;DHT22;277;50.074;8.436;2023-02-11T06:34:03;4.10;99.90
582;DHT22;277;50.074;8.436;2023-02-11T06:36:31;3.80;99.90
582;DHT22;277;50.074;8.436;2023-02-11T06:39:01;3.60;99.90
582;DHT22;277;50.074;8.436;2023-02-11T06:41:29;3.40;99.90
582;DHT22;277;50.074;8.436;2023-02-11T06:43:56;3.30;99.90
582;DHT22;277;50.074;8.436;2023-02-11T06:46:24;3.10;99.90
582;DHT22;277;50.074;8.436;2023-02-11T06:48:52;3.00;99.90
582;DHT22;277;50.074;8.436;2023-02-11T06:51:20;2.80;99.90
582;DHT22;277;50.074;8.436;2023-02-11T06:53:48;2.70;99.90
582;DHT22;277;50.074;8.436;2023-02-11T06:56:19;2.60;99.90
582;DHT22;277;50.074;8.436;2023-02-11T06:58:47;2.50;99.90
582;DHT22;277;50.074;8.436;2023-02-11T07:01:18;2.40;99.90
582;DHT22;277;50.074;8.436;2023-02-11T07:03:47;2.30;99.90
582;DHT22;277;50.074;8.436;2023-02-11T07:06:17;2.30;99.90
582;DHT22;277;50.074;8.436;2023-02-11T07:08:45;2.20;99.90
582;DHT22;277;50.074;8.436;2023-02-11T07:11:15;2.20;99.90
582;DHT22;277;50.074;8.436;2023-02-11T07:13:45;2.10;99.90
582;DHT22;277;50.074;8.436;2023-02-11T07:16:15;2.10;99.90
582;DHT22;277;50.074;8.436;2023-02-11T07:18:45;2.10;99.90
582;DHT22;277;50.074;8.436;2023-02-11T07:21:15;2.10;99.90
582;DHT22;277;50.074;8.436;2023-02-11T07:23:43;2.00;99.90
582;DHT22;277;50.074;8.436;2023-02-11T07:26:14;2.10;99.90
582;DHT22;277;50.074;8.436;2023-02-11T07:28:44;2.10;99.90
582;DHT22;277;50.074;8.436;2023-02-11T07:31:14;2.10;99.90
582;DHT22;277;50.074;8.436;2023-02-11T07:33:43;2.10;99.90
582;DHT22;277;50.074;8.436;2023-02-11T07:36:13;2.20;99.90
582;DHT22;277;50.074;8.436;2023-02-11T07:38:42;2.20;99.90
582;DHT22;277;50.074;8.436;2023-02-11T07:41:12;2.40;99.90
582;DHT22;277;50.074;8.436;2023-02-11T07:43:41;2.30;99.90
582;DHT22;277;50.074;8.436;2023-02-11T07:46:13;2.30;99.90
582;DHT22;277;50.074;8.436;2023-02-11T07:48:41;2.40;99.90
582;DHT22;277;50.074;8.436;2023-02-11T07:51:11;2.40;99.90
582;DHT22;277;50.074;8.436;2023-02-11T07:53:39;2.40;99.90
582;DHT22;277;50.074;8.436;2023-02-11T07:56:09;2.40;99.90
582;DHT22;277;50.074;8.436;2023-02-11T07:58:37;2.50;99.90
582;DHT22;277;50.074;8.436;2023-02-11T08:01:06;2.50;99.90
582;DHT22;277;50.074;8.436;2023-02-11T08:03:36;2.60;99.90
582;DHT22;277;50.074;8.436;2023-02-11T08:06:06;2.70;99.90
582;DHT22;277;50.074;8.436;2023-02-11T08:08:34;2.80;99.90
582;DHT22;277;50.074;8.436;2023-02-11T08:11:05;2.90;99.90
582;DHT22;277;50.074;8.436;2023-02-11T08:13:34;2.90;99.90
582;DHT22;277;50.074;8.436;2023-02-11T08:16:03;2.80;99.90
582;DHT22;277;50.074;8.436;2023-02-11T08:18:32;2.90;99.90
582;DHT22;277;50.074;8.436;2023-02-11T08:21:05;3.00;99.90
582;DHT22;277;50.074;8.436;2023-02-11T08:23:35;3.00;99.90
582;DHT22;277;50.074;8.436;2023-02-11T08:26:05;3.00;99.90
582;DHT22;277;50.074;8.436;2023-02-11T08:28:35;3.10;99.90
582;DHT22;277;50.074;8.436;2023-02-11T08:31:04;3.10;99.90
582;DHT22;277;50.074;8.436;2023-02-11T08:33:33;3.10;99.90
582;DHT22;277;50.074;8.436;2023-02-11T08:36:08;3.20;99.90
582;DHT22;277;50.074;8.436;2023-02-11T08:38:37;3.40;99.90
582;DHT22;277;50.074;8.436;2023-02-11T08:41:05;3.60;99.90
582;DHT22;277;50.074;8.436;2023-02-11T08:43:33;3.90;99.90
582;DHT22;277;50.074;8.436;2023-02-11T08:46:02;4.00;99.90
582;DHT22;277;50.074;8.436;2023-02-11T08:48:30;4.00;99.90
582;DHT22;277;50.074;8.436;2023-02-11T08:50:58;4.10;99.90
582;DHT22;277;50.074;8.436;2023-02-11T08:53:27;4.00;99.90
582;DHT22;277;50.074;8.436;2023-02-11T08:55:55;4.00;99.90
582;DHT22;277;50.074;8.436;2023-02-11T08:58:23;4.00;99.90
582;DHT22;277;50.074;8.436;2023-02-11T09:00:51;4.10;99.90
582;DHT22;277;50.074;8.436;2023-02-11T09:03:19;4.20;99.90
582;DHT22;277;50.074;8.436;2023-02-11T09:05:48;4.10;99.90
582;DHT22;277;50.074;8.436;2023-02-11T09:08:19;4.10;99.90
582;DHT22;277;50.074;8.436;2023-02-11T09:10:48;4.00;99.90
582;DHT22;277;50.074;8.436;2023-02-11T09:13:16;4.00;99.90
582;DHT22;277;50.074;8.436;2023-02-11T09:15:45;4.00;99.90
582;DHT22;277;50.074;8.436;2023-02-11T09:18:13;4.10;99.90
582;DHT22;277;50.074;8.436;2023-02-11T09:20:41;4.10;99.90
582;DHT22;277;50.074;8.436;2023-02-11T09:23:09;4.10;99.90
582;DHT22;277;50.074;8.436;2023-02-11T09:25:38;4.10;99.90
582;DHT22;277;50.074;8.436;2023-02-11T09:28:08;4.10;99.90
582;DHT22;277;50.074;8.436;2023-02-11T09:30:37;4.20;99.90
582;DHT22;277;50.074;8.436;2023-02-11T09:33:05;4.20;99.90
582;DHT22;277;50.074;8.436;2023-02-11T09:35:33;4.40;99.90
582;DHT22;277;50.074;8.436;2023-02-11T09:38:01;4.60;99.90
582;DHT22;277;50.074;8.436;2023-02-11T09:40:29;4.70;99.90
582;DHT22;277;50.074;8.436;2023-02-11T09:43:03;4.70;99.90
582;DHT22;277;50.074;8.436;2023-02-11T09:45:36;4.80;99.90
582;DHT22;277;50.074;8.436;2023-02-11T09:48:09;4.80;99.90
582;DHT22;277;50.074;8.436;2023-02-11T09:50:41;4.90;99.90
582;DHT22;277;50.074;8.436;2023-02-11T09:53:15;4.90;99.90
582;DHT22;277;50.074;8.436;2023-02-11T09:55:46;4.90;99.90
582;DHT22;277;50.074;8.436;2023-02-11T09:58:19;4.90;99.90
582;DHT22;277;50.074;8.436;2023-02-11T10:00:58;5.10;99.90
582;DHT22;277;50.074;8.436;2023-02-11T10:03:55;5.30;99.90
582;DHT22;277;50.074;8.436;2023-02-11T10:06:35;5.50;99.90
582;DHT22;277;50.074;8.436;2023-02-11T10:09:18;5.50;99.90
582;DHT22;277;50.074;8.436;2023-02-11T10:11:52;5.40;99.90
582;DHT22;277;50.074;8.436;2023-02-11T10:14:44;5.30;99.90
582;DHT22;277;50.074;8.436;2023-02-11T10:17:22;5.20;99.90
582;DHT22;277;50.074;8.436;2023-02-11T10:20:07;5.30;99.90
582;DHT22;277;50.074;8.436;2023-02-11T10:22:46;5.40;99.90
582;DHT22;277;50.074;8.436;2023-02-11T10:25:20;5.50;99.90
582;DHT22;277;50.074;8.436;2023-02-11T10:27:50;5.60;99.90
582;DHT22;277;50.074;8.436;2023-02-11T10:30:22;5.70;99.90
582;DHT22;277;50.074;8.436;2023-02-11T10:32:59;5.80;99.90
582;DHT22;277;50.074;8.436;2023-02-11T10:35:29;6.00;99.90
582;DHT22;277;50.074;8.436;2023-02-11T10:37:58;6.10;99.90
582;DHT22;277;50.074;8.436;2023-02-11T10:40:29;6.30;99.90
582;DHT22;277;50.074;8.436;2023-02-11T10:43:00;6.40;99.90
582;DHT22;277;50.074;8.436;2023-02-11T10:45:32;6.40;99.90
582;DHT22;277;50.074;8.436;2023-02-11T10:48:03;6.40;99.90
582;DHT22;277;50.074;8.436;2023-02-11T10:50:33;6.50;99.90
582;DHT22;277;50.074;8.436;2023-02-11T10:53:14;6.50;99.90
582;DHT22;277;50.074;8.436;2023-02-11T10:55:49;6.50;99.90
582;DHT22;277;50.074;8.436;2023-02-11T10:58:24;6.50;99.90
582;DHT22;277;50.074;8.436;2023-02-11T11:00:54;6.50;99.90
582;DHT22;277;50.074;8.436;2023-02-11T11:03:25;6.60;99.90
582;DHT22;277;50.074;8.436;2023-02-11T11:05:56;6.60;99.90
582;DHT22;277;50.074;8.436;2023-02-11T11:08:38;6.70;99.90
582;DHT22;277;50.074;8.436;2023-02-11T11:11:08;6.80;99.90
582;DHT22;277;50.074;8.436;2023-02-11T11:13:37;6.90;99.90
582;DHT22;277;50.074;8.436;2023-02-11T11:16:08;7.00;99.90
582;DHT22;277;50.074;8.436;2023-02-11T11:18:44;7.10;99.90
582;DHT22;277;50.074;8.436;2023-02-11T11:21:15;7.20;99.90
582;DHT22;277;50.074;8.436;2023-02-11T11:23:50;7.30;99.90
582;DHT22;277;50.074;8.436;2023-02-11T11:26:19;7.50;99.90
582;DHT22;277;50.074;8.436;2023-02-11T11:28:58;7.50;99.90
582;DHT22;277;50.074;8.436;2023-02-11T11:31:29;7.50;99.90
582;DHT22;277;50.074;8.436;2023-02-11T11:34:01;7.60;99.90
582;DHT22;277;50.074;8.436;2023-02-11T11:36:33;7.60;99.90
582;DHT22;277;50.074;8.436;2023-02-11T11:39:15;7.60;99.90
582;DHT22;277;50.074;8.436;2023-02-11T11:41:55;7.70;99.90
582;DHT22;277;50.074;8.436;2023-02-11T11:44:27;7.70;99.90
582;DHT22;277;50.074;8.436;2023-02-11T11:47:14;7.90;99.90
582;DHT22;277;50.074;8.436;2023-02-11T11:49:49;8.00;99.90
582;DHT22;277;50.074;8.436;2023-02-11T11:52:25;8.10;99.90
582;DHT22;277;50.074;8.436;2023-02-11T11:55:04;8.10;99.90
582;DHT22;277;50.074;8.436;2023-02-11T11:57:37;8.20;99.90
582;DHT22;277;50.074;8.436;2023-02-11T12:00:13;8.30;99.90
582;DHT22;277;50.074;8.436;2023-02-11T12:03:01;8.40;99.90
582;DHT22;277;50.074;8.436;2023-02-11T12:05:36;8.50;99.90
582;DHT22;277;50.074;8.436;2023-02-11T12:08:16;8.40;99.90
582;DHT22;277;50.074;8.436;2023-02-11T12:10:55;8.50;99.90
582;DHT22;277;50.074;8.436;2023-02-11T12:13:38;8.40;99.90
582;DHT22;277;50.074;8.436;2023-02-11T12:16:16;8.30;99.90
582;DHT22;277;50.074;8.436;2023-02-11T12:19:06;8.30;99.90
582;DHT22;277;50.074;8.436;2023-02-11T12:21:47;8.40;99.90
582;DHT22;277;50.074;8.436;2023-02-11T12:24:28;8.40;99.90
582;DHT22;277;50.074;8.436;2023-02-11T12:27:03;8.30;99.90
582;DHT22;277;50.074;8.436;2023-02-11T12:29:39;8.40;99.90
582;DHT22;277;50.074;8.436;2023-02-11T12:32:16;8.50;99.90
582;DHT22;277;50.074;8.436;2023-02-11T12:38:24;8.60;99.90
582;DHT22;277;50.074;8.436;2023-02-11T12:41:03;8.50;99.90
582;DHT22;277;50.074;8.436;2023-02-11T12:43:40;8.60;99.90
582;DHT22;277;50.074;8.436;2023-02-11T12:46:32;8.60;99.90
582;DHT22;277;50.074;8.436;2023-02-11T12:49:17;8.60;99.90
582;DHT22;277;50.074;8.436;2023-02-11T12:52:15;8.70;99.90
582;DHT22;277;50.074;8.436;2023-02-11T12:54:54;8.80;99.90
582;DHT22;277;50.074;8.436;2023-02-11T12:57:25;8.90;99.90
582;DHT22;277;50.074;8.436;2023-02-11T12:59:58;8.80;99.90
582;DHT22;277;50.074;8.436;2023-02-11T13:02:33;8.70;99.90
582;DHT22;277;50.074;8.436;2023-02-11T13:05:19;8.60;99.90
582;DHT22;277;50.074;8.436;2023-02-11T13:07:50;8.60;99.90
582;DHT22;277;50.074;8.436;2023-02-11T13:10:32;8.60;99.90
582;DHT22;277;50.074;8.436;2023-02-11T13:13:03;8.50;99.90
582;DHT22;277;50.074;8.436;2023-02-11T13:15:47;8.50;99.90
582;DHT22;277;50.074;8.436;2023-02-11T13:21:23;8.40;99.90
582;DHT22;277;50.074;8.436;2023-02-11T13:23:56;8.40;99.90
582;DHT22;277;50.074;8.436;2023-02-11T13:26:32;8.40;99.90
582;DHT22;277;50.074;8.436;2023-02-11T13:29:12;8.40;99.90
582;DHT22;277;50.074;8.436;2023-02-11T13:31:51;8.40;99.90
582;DHT22;277;50.074;8.436;2023-02-11T13:34:23;8.40;99.90
582;DHT22;277;50.074;8.436;2023-02-11T13:36:55;8.30;99.90
582;DHT22;277;50.074;8.436;2023-02-11T13:39:24;8.20;99.90
582;DHT22;277;50.074;8.436;2023-02-11T13:42:01;8.10;99.90
582;DHT22;277;50.074;8.436;2023-02-11T13:44:32;8.10;99.90
582;DHT22;277;50.074;8.436;2023-02-11T13:47:03;8.10;99.90
582;DHT22;277;50.074;8.436;2023-02-11T13:49:34;8.00;99.90
582;DHT22;277;50.074;8.436;2023-02-11T13:52:17;8.00;99.90
582;DHT22;277;50.074;8.436;2023-02-11T13:54:49;7.90;99.90
582;DHT22;277;50.074;8.436;2023-02-11T13:57:32;7.90;99.90
582;DHT22;277;50.074;8.436;2023-02-11T14:00:02;7.90;99.90
582;DHT22;277;50.074;8.436;2023-02-11T14:02:33;7.80;99.90
582;DHT22;277;50.074;8.436;2023-02-11T14:05:28;7.90;99.90
582;DHT22;277;50.074;8.436;2023-02-11T14:08:19;7.90;99.90
582;DHT22;277;50.074;8.436;2023-02-11T14:11:08;8.00;99.90
582;DHT22;277;50.074;8.436;2023-02-11T14:14:02;8.10;99.90
582;DHT22;277;50.074;8.436;2023-02-11T14:16:30;8.00;99.90
582;DHT22;277;50.074;8.436;2023-02-11T14:19:04;8.00;99.90
582;DHT22;277;50.074;8.436;2023-02-11T14:21:35;8.00;99.90
582;DHT22;277;50.074;8.436;2023-02-11T14:27:12;7.90;99.90
582;DHT22;277;50.074;8.436;2023-02-11T14:29:57;7.90;99.90
582;DHT22;277;50.074;8.436;2023-02-11T14:32:37;7.80;99.90
582;DHT22;277;50.074;8.436;2023-02-11T14:35:11;7.70;99.90
582;DHT22;277;50.074;8.436;2023-02-11T14:37:46;7.80;99.90
582;DHT22;277;50.074;8.436;2023-02-11T14:40:26;7.80;99.90
582;DHT22;277;50.074;8.436;2023-02-11T14:42:56;7.80;99.90
582;DHT22;277;50.074;8.436;2023-02-11T14:45:29;7.80;99.90
582;DHT22;277;50.074;8.436;2023-02-11T14:48:02;7.80;99.90
582;DHT22;277;50.074;8.436;2023-02-11T14:50:42;7.80;99.90
582;DHT22;277;50.074;8.436;2023-02-11T14:53:14;7.80;99.90
582;DHT22;277;50.074;8.436;2023-02-11T14:55:45;7.80;99.90
582;DHT22;277;50.074;8.436;2023-02-11T14:58:15;7.80;99.90
582;DHT22;277;50.074;8.436;2023-02-11T15:00:51;7.80;99.90
582;DHT22;277;50.074;8.436;2023-02-11T15:03:28;7.80;99.90
582;DHT22;277;50.074;8.436;2023-02-11T15:05:58;8.00;99.90
582;DHT22;277;50.074;8.436;2023-02-11T15:08:27;7.90;99.90
582;DHT22;277;50.074;8.436;2023-02-11T15:10:57;7.80;99.90
582;DHT22;277;50.074;8.436;2023-02-11T15:13:28;7.90;99.90
582;DHT22;277;50.074;8.436;2023-02-11T15:16:03;7.90;99.90
582;DHT22;277;50.074;8.436;2023-02-11T15:18:35;7.90;99.90
582;DHT22;277;50.074;8.436;2023-02-11T15:21:04;7.90;99.90
582;DHT22;277;50.074;8.436;2023-02-11T15:23:33;7.90;99.90
582;DHT22;277;50.074;8.436;2023-02-11T15:26:00;7.80;99.90
582;DHT22;277;50.074;8.436;2023-02-11T15:28:32;7.80;99.90
582;DHT22;277;50.074;8.436;2023-02-11T15:31:04;7.80;99.90
582;DHT22;277;50.074;8.436;2023-02-11T15:33:39;7.80;99.90
582;DHT22;277;50.074;8.436;2023-02-11T15:36:09;7.80;99.90
582;DHT22;277;50.074;8.436;2023-02-11T15:38:37;7.80;99.90
582;DHT22;277;50.074;8.436;2023-02-11T15:41:06;7.90;99.90
582;DHT22;277;50.074;8.436;2023-02-11T15:43:42;8.00;99.90
582;DHT22;277;50.074;8.436;2023-02-11T15:46:13;8.00;99.90
582;DHT22;277;50.074;8.436;2023-02-11T15:48:44;8.00;99.90
582;DHT22;277;50.074;8.436;2023-02-11T15:51:18;8.10;99.90
582;DHT22;277;50.074;8.436;2023-02-11T15:53:49;8.00;99.90
582;DHT22;277;50.074;8.436;2023-02-11T15:56:21;8.10;99.90
582;DHT22;277;50.074;8.436;2023-02-11T15:58:52;8.10;99.90
582;DHT22;277;50.074;8.436;2023-02-11T16:01:29;8.10;99.90
582;DHT22;277;50.074;8.436;2023-02-11T16:04:00;8.10;99.90
582;DHT22;277;50.074;8.436;2023-02-11T16:06:36;8.20;99.90
582;DHT22;277;50.074;8.436;2023-02-11T16:09:20;8.20;99.90
582;DHT22;277;50.074;8.436;2023-02-11T16:11:54;8.10;99.90
582;DHT22;277;50.074;8.436;2023-02-11T16:14:29;8.10;99.90
582;DHT22;277;50.074;8.436;2023-02-11T16:17:00;8.00;99.90
582;DHT22;277;50.074;8.436;2023-02-11T16:19:29;8.10;99.90
582;DHT22;277;50.074;8.436;2023-02-11T16:22:00;8.10;99.90
582;DHT22;277;50.074;8.436;2023-02-11T16:24:31;8.20;99.90
582;DHT22;277;50.074;8.436;2023-02-11T16:27:01;8.30;99.90
582;DHT22;277;50.074;8.436;2023-02-11T16:29:31;8.30;99.90
582;DHT22;277;50.074;8.436;2023-02-11T16:32:07;8.30;99.90
582;DHT22;277;50.074;8.436;2023-02-11T16:34:36;8.30;99.90
582;DHT22;277;50.074;8.436;2023-02-11T16:37:04;8.30;99.90
582;DHT22;277;50.074;8.436;2023-02-11T16:39:32;8.30;99.90
582;DHT22;277;50.074;8.436;2023-02-11T16:42:01;8.30;99.90
582;DHT22;277;50.074;8.436;2023-02-11T16:44:33;8.30;99.90
582;DHT22;277;50.074;8.436;2023-02-11T16:47:02;8.30;99.90
582;DHT22;277;50.074;8.436;2023-02-11T16:49:34;8.20;99.90
582;DHT22;277;50.074;8.436;2023-02-11T16:52:06;8.20;99.90
582;DHT22;277;50.074;8.436;2023-02-11T16:54:34;8.10;99.90
582;DHT22;277;50.074;8.436;2023-02-11T16:57:07;8.00;99.90
582;DHT22;277;50.074;8.436;2023-02-11T16:59:35;7.80;99.90
582;DHT22;277;50.074;8.436;2023-02-11T17:02:03;7.60;99.90
582;DHT22;277;50.074;8.436;2023-02-11T17:04:33;7.50;99.90
582;DHT22;277;50.074;8.436;2023-02-11T17:07:01;7.40;99.90
582;DHT22;277;50.074;8.436;2023-02-11T17:09:28;7.30;99.90
582;DHT22;277;50.074;8.436;2023-02-11T17:11:57;7.20;99.90
582;DHT22;277;50.074;8.436;2023-02-11T17:14:25;7.30;99.90
582;DHT22;277;50.074;8.436;2023-02-11T17:16:53;7.20;99.90
582;DHT22;277;50.074;8.436;2023-02-11T17:19:21;7.10;99.90
582;DHT22;277;50.074;8.436;2023-02-11T17:21:51;7.20;99.90
582;DHT22;277;50.074;8.436;2023-02-11T17:24:21;7.20;99.90
582;DHT22;277;50.074;8.436;2023-02-11T17:26:49;7.30;99.90
582;DHT22;277;50.074;8.436;2023-02-11T17:29:19;7.30;99.90
582;DHT22;277;50.074;8.436;2023-02-11T17:31:48;7.30;99.90
582;DHT22;277;50.074;8.436;2023-02-11T17:34:18;7.30;99.90
582;DHT22;277;50.074;8.436;2023-02-11T17:36:46;7.30;99.90
582;DHT22;277;50.074;8.436;2023-02-11T17:39:15;7.20;99.90